createdAt,value
2023-01-28T00:03:54.673Z,23.01
2023-01-28T00:08:56.140Z,23.26
2023-01-28T00:13:57.519Z,23.10
2023-01-28T00:18:58.923Z,23.13
2023-01-28T00:24:00.394Z,23.02
2023-01-28T00:29:01.822Z,23.15
2023-01-28T00:34:03.229Z,22.89
2023-01-28T00:39:04.773Z,23.00
2023-01-28T00:44:06.151Z,23.06
2023-01-28T00:49:07.815Z,22.94
2023-01-28T00:54:10.993Z,22.86
2023-01-28T00:59:13.877Z,22.85
2023-01-28T01:04:26.903Z,22.74
2023-01-28T01:09:28.457Z,22.66
2023-01-28T01:14:29.849Z,22.72
2023-01-28T01:19:31.408Z,22.42
2023-01-28T01:24:33.938Z,22.45
2023-01-28T01:29:35.337Z,22.25
2023-01-28T01:34:36.723Z,22.37
2023-01-28T01:39:38.089Z,22.15
2023-01-28T01:44:56.536Z,22.21
2023-01-28T01:49:58.648Z,22.33
2023-01-28T01:55:01.095Z,22.43
2023-01-28T02:00:06.205Z,22.40
2023-01-28T02:05:08.462Z,22.20
2023-01-28T02:10:10.191Z,22.17
2023-01-28T02:15:14.665Z,21.98
2023-01-28T02:20:27.774Z,22.08
2023-01-28T02:26:08.606Z,21.97
2023-01-28T02:31:19.933Z,21.71
2023-01-28T02:36:28.723Z,21.84
2023-01-28T02:41:33.193Z,21.90
2023-01-28T02:46:54.676Z,21.82
2023-01-28T02:52:52.239Z,21.85
2023-01-28T02:58:00.918Z,21.83
2023-01-28T03:03:23.494Z,22.00
2023-01-28T03:08:43.602Z,22.07
2023-01-28T03:14:03.818Z,22.03
2023-01-28T03:19:23.885Z,22.13
2023-01-28T03:24:54.762Z,21.91
2023-01-28T03:30:16.351Z,22.03
2023-01-28T03:35:36.893Z,21.91
2023-01-28T03:40:48.947Z,21.94
2023-01-28T03:45:52.862Z,21.95
2023-01-28T03:50:58.909Z,21.82
2023-01-28T03:56:00.318Z,21.94
2023-01-28T04:01:01.701Z,21.84
2023-01-28T04:06:04.875Z,21.81
2023-01-28T04:11:19.994Z,21.65
2023-01-28T04:16:21.509Z,21.52
2023-01-28T04:21:22.929Z,21.55
2023-01-28T04:26:24.346Z,21.60
2023-01-28T04:31:25.742Z,21.42
2023-01-28T04:36:27.129Z,21.23
2023-01-28T04:41:28.495Z,21.15
2023-01-28T04:46:29.928Z,21.24
2023-01-28T04:51:31.346Z,21.00
2023-01-28T04:56:32.735Z,20.79
2023-01-28T05:01:34.267Z,20.49
2023-01-28T05:06:35.666Z,20.24
2023-01-28T05:11:39.177Z,20.29
2023-01-28T05:16:40.794Z,19.75
2023-01-28T05:21:42.206Z,19.86
2023-01-28T05:26:43.590Z,19.83
2023-01-28T05:31:44.958Z,19.61
2023-01-28T05:36:46.368Z,19.59
2023-01-28T05:41:47.821Z,19.55
2023-01-28T05:46:49.410Z,19.59
2023-01-28T05:51:50.816Z,19.55
2023-01-28T05:56:52.532Z,19.29
2023-01-28T06:01:53.932Z,19.07
2023-01-28T06:06:55.303Z,19.19
2023-01-28T06:11:56.694Z,19.32
2023-01-28T06:16:58.129Z,19.00
2023-01-28T06:21:59.502Z,19.11
2023-01-28T06:27:00.884Z,18.97
2023-01-28T06:32:02.332Z,19.11
2023-01-28T06:37:04.221Z,19.24
2023-01-28T06:42:05.633Z,18.82
2023-01-28T06:47:07.286Z,18.58
2023-01-28T06:52:08.713Z,18.61
2023-01-28T06:57:10.100Z,18.57
2023-01-28T07:02:11.663Z,18.37
2023-01-28T07:07:13.053Z,18.44
2023-01-28T07:12:14.484Z,18.25
2023-01-28T07:17:15.939Z,18.19
2023-01-28T07:22:17.393Z,18.21
2023-01-28T07:27:18.783Z,18.11
2023-01-28T07:32:20.176Z,17.87
2023-01-28T07:37:21.831Z,18.07
2023-01-28T07:42:23.225Z,17.72
2023-01-28T07:47:24.643Z,17.57
2023-01-28T07:52:26.041Z,17.60
2023-01-28T07:57:30.083Z,17.52
2023-01-28T08:02:31.483Z,17.51
2023-01-28T08:07:32.874Z,17.38
2023-01-28T08:12:34.259Z,17.12
2023-01-28T08:17:35.722Z,17.47
2023-01-28T08:22:37.128Z,17.38
2023-01-28T08:27:38.507Z,17.38
2023-01-28T08:32:39.969Z,17.37
2023-01-28T08:37:41.348Z,17.44
2023-01-28T08:42:52.726Z,17.30
2023-01-28T08:47:54.937Z,17.31
2023-01-28T08:52:57.061Z,17.18
2023-01-28T08:57:58.793Z,17.31
2023-01-28T09:03:00.269Z,17.36
2023-01-28T09:08:05.771Z,17.29
2023-01-28T09:13:15.105Z,17.18
2023-01-28T09:18:16.839Z,17.13
2023-01-28T09:23:18.215Z,17.26
2023-01-28T09:28:19.627Z,17.14
2023-01-28T09:33:21.047Z,17.00
2023-01-28T09:38:22.420Z,16.80
2023-01-28T09:43:45.327Z,16.91
2023-01-28T09:48:48.889Z,17.03
2023-01-28T09:53:50.256Z,17.03
2023-01-28T09:58:51.985Z,16.48
2023-01-28T10:04:22.827Z,16.92
2023-01-28T10:09:42.374Z,16.57
2023-01-28T10:15:05.493Z,16.62
2023-01-28T10:20:19.186Z,16.38
2023-01-28T10:25:22.030Z,16.53
2023-01-28T10:30:25.526Z,16.61
2023-01-28T10:35:27.654Z,16.40
2023-01-28T10:40:29.032Z,16.16
2023-01-28T10:45:32.666Z,16.43
2023-01-28T10:50:35.230Z,16.67
2023-01-28T10:55:47.902Z,16.52
2023-01-28T11:01:13.548Z,16.57
2023-01-28T11:06:26.932Z,16.57
2023-01-28T11:11:28.604Z,16.71
2023-01-28T11:16:29.966Z,16.57
2023-01-28T11:21:31.616Z,16.63
2023-01-28T11:26:35.041Z,16.65
2023-01-28T11:31:39.447Z,16.75
2023-01-28T11:36:40.837Z,16.79
2023-01-28T11:41:42.224Z,16.63
2023-01-28T11:46:57.434Z,16.44
2023-01-28T11:52:03.901Z,16.65
2023-01-28T11:57:31.236Z,16.42
2023-01-28T12:02:35.318Z,16.67
2023-01-28T12:08:01.432Z,16.62
2023-01-28T12:13:27.651Z,16.63
2023-01-28T12:18:56.809Z,16.71
2023-01-28T12:24:07.405Z,16.72
2023-01-28T12:29:21.139Z,16.66
2023-01-28T12:34:48.809Z,16.56
2023-01-28T12:40:15.596Z,16.73
2023-01-28T12:45:33.862Z,16.40
2023-01-28T12:50:51.805Z,16.37
2023-01-28T12:55:56.760Z,16.37
2023-01-28T13:01:00.580Z,16.60
2023-01-28T13:06:04.564Z,16.43
2023-01-28T13:11:05.964Z,16.52
2023-01-28T13:16:08.238Z,16.35
2023-01-28T13:21:32.425Z,16.33
2023-01-28T13:26:51.131Z,16.70
2023-01-28T13:31:54.421Z,16.63
2023-01-28T13:36:56.241Z,16.36
2023-01-28T13:42:23.752Z,16.71
2023-01-28T13:47:31.116Z,16.60
2023-01-28T13:52:36.819Z,16.56
2023-01-28T13:58:05.220Z,16.57
2023-01-28T14:03:30.798Z,16.47
2023-01-28T14:08:50.398Z,16.46
2023-01-28T14:14:23.619Z,16.52
2023-01-28T14:19:35.178Z,16.63
2023-01-28T14:24:37.939Z,16.61
2023-01-28T14:30:00.334Z,16.78
2023-01-28T14:35:06.930Z,16.47
2023-01-28T14:40:12.057Z,16.45
2023-01-28T14:45:28.577Z,16.65
2023-01-28T14:51:00.723Z,16.79
2023-01-28T14:56:15.536Z,16.44
2023-01-28T15:01:25.281Z,16.46
2023-01-28T15:06:31.329Z,16.65
2023-01-28T15:11:32.714Z,16.50
2023-01-28T15:16:35.158Z,16.43
2023-01-28T15:21:36.535Z,16.08
2023-01-28T15:26:38.197Z,16.53
2023-01-28T15:31:39.711Z,16.44
2023-01-28T15:36:41.256Z,16.14
2023-01-28T15:41:47.114Z,16.30
2023-01-28T15:46:48.787Z,16.43
2023-01-28T15:51:51.057Z,16.40
2023-01-28T15:56:52.490Z,16.32
2023-01-28T16:02:17.880Z,16.29
2023-01-28T16:07:19.331Z,16.25
2023-01-28T16:12:23.481Z,16.24
2023-01-28T16:17:27.997Z,16.24
2023-01-28T16:22:35.995Z,16.18
2023-01-28T16:27:37.382Z,16.23
2023-01-28T16:32:39.091Z,16.21
2023-01-28T16:37:41.741Z,16.28
2023-01-28T16:42:48.318Z,16.15
2023-01-28T16:47:49.814Z,16.12
2023-01-28T16:52:51.742Z,16.02
2023-01-28T16:57:54.228Z,16.02
2023-01-28T17:02:55.618Z,16.15
2023-01-28T17:07:59.200Z,16.09
2023-01-28T17:13:00.620Z,16.06
2023-01-28T17:18:02.002Z,16.51
2023-01-28T17:23:05.980Z,16.17
2023-01-28T17:28:07.846Z,16.10
2023-01-28T17:33:09.407Z,16.04
2023-01-28T17:38:10.804Z,16.14
2023-01-28T17:43:12.177Z,15.94
2023-01-28T17:48:13.555Z,15.93
2023-01-28T17:53:14.931Z,15.94
2023-01-28T17:58:16.470Z,16.19
2023-01-28T18:03:17.852Z,16.02
2023-01-28T18:08:19.249Z,16.11
2023-01-28T18:13:20.629Z,16.03
2023-01-28T18:18:22.026Z,16.19
2023-01-28T18:23:23.415Z,16.35
2023-01-28T18:28:24.878Z,16.36
2023-01-28T18:33:26.310Z,16.32
2023-01-28T18:38:27.711Z,16.55
2023-01-28T18:43:32.378Z,16.35
2023-01-28T18:48:33.745Z,16.35
2023-01-28T18:53:35.197Z,16.34
2023-01-28T18:58:36.582Z,16.60
2023-01-28T19:03:38.031Z,16.68
2023-01-28T19:08:39.487Z,16.50
2023-01-28T19:13:40.878Z,16.65
2023-01-28T19:18:42.250Z,16.61
2023-01-28T19:23:49.927Z,16.92
2023-01-28T19:28:51.753Z,16.86
2023-01-28T19:33:57.804Z,16.85
2023-01-28T19:39:00.060Z,16.95
2023-01-28T19:44:01.515Z,17.01
2023-01-28T19:49:03.853Z,17.08
2023-01-28T19:54:05.258Z,16.92
2023-01-28T19:59:06.719Z,16.76
2023-01-28T20:04:08.101Z,16.91
2023-01-28T20:09:14.700Z,16.98
2023-01-28T20:14:17.845Z,17.02
2023-01-28T20:19:19.408Z,16.97
2023-01-28T20:24:20.863Z,16.98
2023-01-28T20:29:22.402Z,17.17
2023-01-28T20:34:23.950Z,17.18
2023-01-28T20:39:25.470Z,17.25
2023-01-28T20:44:31.721Z,17.17
2023-01-28T20:49:33.120Z,17.37
2023-01-28T20:54:34.529Z,17.44
2023-01-28T20:59:36.802Z,17.36
2023-01-28T21:04:38.179Z,17.42
2023-01-28T21:09:39.789Z,17.33
2023-01-28T21:14:41.180Z,17.29
2023-01-28T21:19:42.674Z,17.31
2023-01-28T21:24:45.577Z,17.28
2023-01-28T21:29:47.000Z,17.47
2023-01-28T21:34:48.420Z,17.51
2023-01-28T21:39:50.177Z,17.29
2023-01-28T21:44:51.663Z,17.16
2023-01-28T21:49:53.049Z,17.08
2023-01-28T21:54:54.432Z,17.27
2023-01-28T21:59:55.819Z,16.94
2023-01-28T22:04:57.194Z,16.85
2023-01-28T22:09:58.587Z,16.93
2023-01-28T22:15:01.216Z,17.03
2023-01-28T22:20:02.767Z,17.00
2023-01-28T22:25:04.302Z,17.01
2023-01-28T22:30:06.251Z,17.29
2023-01-28T22:35:08.170Z,17.04
2023-01-28T22:40:10.073Z,17.25
2023-01-28T22:45:11.572Z,17.26
2023-01-28T22:50:13.275Z,17.09
2023-01-28T22:55:14.734Z,17.07
2023-01-28T23:00:17.312Z,17.42
2023-01-28T23:05:19.297Z,17.08
2023-01-28T23:10:20.693Z,17.14
2023-01-28T23:15:41.485Z,17.28
2023-01-28T23:21:01.602Z,17.41
2023-01-28T23:26:02.990Z,17.07
2023-01-28T23:31:04.686Z,17.22
2023-01-28T23:36:06.191Z,17.29
2023-01-28T23:41:08.891Z,17.07
2023-01-28T23:46:10.341Z,17.46
2023-01-28T23:51:11.826Z,17.31
2023-01-28T23:56:13.213Z,17.42
